Aviation Digital Data Service (ADDS)

Output produced by METARs form (0221 UTC 02 October 2014)
found at http://www.aviationweather.gov/adds/metars/
 
KESN 020055Z 00000KT 10SM SCT040 18/18 A3008